Time;durP1;ratioP1;P1;durP2;ratioP2;P2;SDS_P1;SDS_P2;PMS_P1;PMS_P2;Temp;Humidity;BMP_temperature;BMP_pressure;BME280_temperature;BME280_humidity;BME280_pressure;Samples;Min_cycle;Max_cycle;Signal;HPM_P1;HPM_P2
2023/12/14 00:00:45;;;;;;;7.63;2.50;;;6.30;99.90;;;;;;5147143;27;20028;-49
2023/12/14 00:03:11;;;;;;;5.47;1.88;;;6.30;99.90;;;;;;5148324;27;20083;-49
2023/12/14 00:05:36;;;;;;;7.18;2.38;;;6.30;99.90;;;;;;5148191;27;20215;-50
2023/12/14 00:08:02;;;;;;;5.80;2.40;;;6.40;99.90;;;;;;5147875;27;20076;-49
2023/12/14 00:10:28;;;;;;;6.03;1.75;;;6.40;99.90;;;;;;5148242;27;20177;-49
2023/12/14 00:12:55;;;;;;;4.65;1.98;;;6.40;99.90;;;;;;5148080;27;20039;-49
2023/12/14 00:15:20;;;;;;;4.85;2.20;;;6.40;99.90;;;;;;5146947;27;20297;-48
2023/12/14 00:17:46;;;;;;;8.02;2.38;;;6.50;99.90;;;;;;5147892;27;20023;-46
2023/12/14 00:20:12;;;;;;;6.30;2.10;;;6.50;99.90;;;;;;5146947;27;20027;-49
2023/12/14 00:22:38;;;;;;;7.70;2.47;;;6.50;99.90;;;;;;5148058;27;20084;-49
2023/12/14 00:25:05;;;;;;;8.10;2.40;;;6.50;99.90;;;;;;5147657;27;20019;-49
2023/12/14 00:27:30;;;;;;;7.90;2.53;;;6.50;99.90;;;;;;5146745;27;20201;-49
2023/12/14 00:29:56;;;;;;;8.60;2.45;;;6.60;99.90;;;;;;5147760;27;20080;-48
2023/12/14 00:32:21;;;;;;;5.63;2.40;;;6.60;99.90;;;;;;5147796;27;20195;-47
2023/12/14 00:34:48;;;;;;;7.40;2.70;;;6.60;99.90;;;;;;5129689;27;20189;-49
2023/12/14 00:37:13;;;;;;;4.13;1.77;;;6.70;99.90;;;;;;5147570;27;20076;-46
2023/12/14 00:39:39;;;;;;;6.93;2.53;;;6.60;99.90;;;;;;5147492;27;20082;-45
2023/12/14 00:42:05;;;;;;;4.55;1.75;;;6.70;99.90;;;;;;5146596;27;20035;-46
2023/12/14 00:44:30;;;;;;;5.38;1.70;;;6.70;99.90;;;;;;5147604;27;20086;-46
2023/12/14 00:46:58;;;;;;;4.60;2.03;;;6.70;99.90;;;;;;5147631;27;20026;-45
2023/12/14 00:49:24;;;;;;;13.02;3.15;;;6.80;99.90;;;;;;5147000;27;20024;-46
2023/12/14 00:51:49;;;;;;;7.45;2.22;;;6.70;99.90;;;;;;5147062;27;20335;-46
2023/12/14 00:54:15;;;;;;;5.05;2.08;;;6.80;99.90;;;;;;5147504;27;20026;-48
2023/12/14 00:56:41;;;;;;;2.83;1.38;;;6.90;99.90;;;;;;5147365;27;20030;-49
2023/12/14 00:59:06;;;;;;;4.43;1.63;;;6.90;99.90;;;;;;5147268;27;20070;-47
2023/12/14 01:01:32;;;;;;;8.35;1.85;;;6.90;99.90;;;;;;5147064;27;20046;-47
2023/12/14 01:03:59;;;;;;;5.07;1.60;;;6.90;99.90;;;;;;5146754;27;20027;-46
2023/12/14 01:06:25;;;;;;;4.95;1.90;;;6.90;99.90;;;;;;5147200;27;20273;-47
2023/12/14 01:08:50;;;;;;;5.15;1.70;;;7.00;99.90;;;;;;5146014;27;20047;-49
2023/12/14 01:11:16;;;;;;;5.07;2.10;;;7.00;99.90;;;;;;5145240;27;20023;-48
2023/12/14 01:13:42;;;;;;;7.20;2.15;;;7.00;99.90;;;;;;5147218;27;20272;-48
2023/12/14 01:16:07;;;;;;;5.00;2.00;;;7.00;99.90;;;;;;5147273;27;20087;-46
2023/12/14 01:18:33;;;;;;;3.47;1.67;;;7.00;99.90;;;;;;5146962;27;20046;-46
2023/12/14 01:20:59;;;;;;;4.90;2.00;;;7.00;99.90;;;;;;5146676;27;20062;-46
2023/12/14 01:23:24;;;;;;;5.13;1.83;;;7.00;99.90;;;;;;5146942;27;20023;-46
2023/12/14 01:25:50;;;;;;;6.28;2.28;;;7.00;99.90;;;;;;5146937;27;20047;-46
2023/12/14 01:28:16;;;;;;;5.20;1.70;;;7.00;99.90;;;;;;5147027;27;20272;-46
2023/12/14 01:30:41;;;;;;;4.22;1.77;;;7.00;99.90;;;;;;5146400;27;20090;-45
2023/12/14 01:33:07;;;;;;;4.88;1.70;;;7.00;99.90;;;;;;5146803;27;20042;-46
2023/12/14 01:35:33;;;;;;;4.78;2.00;;;7.10;99.90;;;;;;5146377;28;20092;-45
2023/12/14 01:37:58;;;;;;;7.80;2.15;;;7.10;99.90;;;;;;5146647;28;20095;-46
2023/12/14 01:40:24;;;;;;;5.68;1.90;;;7.10;99.90;;;;;;5146982;28;20263;-47
2023/12/14 01:42:49;;;;;;;5.47;1.70;;;7.10;99.90;;;;;;5146872;28;20023;-46
2023/12/14 01:45:16;;;;;;;7.95;1.92;;;7.10;99.90;;;;;;5146511;28;20027;-47
2023/12/14 01:47:42;;;;;;;6.57;1.80;;;7.10;99.90;;;;;;5146710;28;20059;-46
2023/12/14 01:50:08;;;;;;;5.85;2.03;;;7.10;99.90;;;;;;5147145;28;20027;-46
2023/12/14 01:52:34;;;;;;;5.15;2.45;;;7.10;99.90;;;;;;5146625;28;20043;-45
2023/12/14 01:55:02;;;;;;;4.93;2.00;;;7.10;99.90;;;;;;5146658;28;20031;-46
2023/12/14 01:57:28;;;;;;;5.13;1.90;;;7.10;99.90;;;;;;5145425;28;20311;-46
2023/12/14 01:59:53;;;;;;;8.30;1.92;;;7.10;99.90;;;;;;5146472;28;20039;-46
2023/12/14 02:02:19;;;;;;;5.38;2.28;;;7.10;99.90;;;;;;5146764;28;20023;-45
2023/12/14 02:04:45;;;;;;;7.97;2.00;;;7.10;99.90;;;;;;5146358;28;20026;-46
2023/12/14 02:07:10;;;;;;;5.22;1.85;;;7.00;99.90;;;;;;5146396;28;20047;-46
2023/12/14 02:09:36;;;;;;;8.88;2.00;;;7.00;99.90;;;;;;5146417;28;20043;-46
2023/12/14 02:12:02;;;;;;;8.60;2.20;;;7.00;99.90;;;;;;5145369;28;20078;-46
2023/12/14 02:14:28;;;;;;;3.83;1.60;;;7.00;99.90;;;;;;5146675;28;20008;-54
2023/12/14 02:16:53;;;;;;;6.35;2.20;;;7.00;99.90;;;;;;5146292;28;20054;-46
2023/12/14 02:19:19;;;;;;;7.32;2.17;;;7.00;99.90;;;;;;5146554;28;20076;-46
2023/12/14 02:21:45;;;;;;;6.55;2.38;;;7.00;99.90;;;;;;5147228;27;20079;-46
2023/12/14 02:24:10;;;;;;;8.63;2.55;;;7.10;99.90;;;;;;5150576;27;20035;-46
2023/12/14 02:26:36;;;;;;;4.43;2.05;;;7.10;99.90;;;;;;5149829;27;20026;-46
2023/12/14 02:29:01;;;;;;;5.95;2.13;;;7.10;99.90;;;;;;5150123;27;20276;-47
2023/12/14 02:31:27;;;;;;;4.70;2.15;;;7.10;99.90;;;;;;5149213;27;20030;-47
2023/12/14 02:33:53;;;;;;;6.00;2.40;;;7.00;99.90;;;;;;5150259;27;20272;-47
2023/12/14 02:36:19;;;;;;;7.90;2.65;;;7.00;99.90;;;;;;5150179;27;20038;-48
2023/12/14 02:38:44;;;;;;;10.35;2.53;;;7.00;99.90;;;;;;5149974;27;20320;-47
2023/12/14 02:41:10;;;;;;;5.93;2.25;;;7.00;99.90;;;;;;5149809;27;20082;-46
2023/12/14 02:43:37;;;;;;;7.57;2.53;;;6.90;99.90;;;;;;5148592;27;20022;-47
2023/12/14 02:46:03;;;;;;;5.38;1.95;;;7.00;99.90;;;;;;5150414;27;20031;-47
2023/12/14 02:48:29;;;;;;;10.27;2.80;;;6.90;99.90;;;;;;5149049;27;20031;-46
2023/12/14 02:50:55;;;;;;;6.88;2.28;;;6.90;99.90;;;;;;5149767;27;20086;-48
2023/12/14 02:53:21;;;;;;;5.18;2.30;;;7.00;99.90;;;;;;5150164;27;20336;-46
2023/12/14 02:55:46;;;;;;;6.57;2.65;;;7.00;99.90;;;;;;5150069;27;20061;-46
2023/12/14 02:58:12;;;;;;;7.63;2.55;;;7.00;99.90;;;;;;5149342;27;20023;-45
2023/12/14 03:00:37;;;;;;;6.18;2.45;;;7.00;99.90;;;;;;5148669;27;20238;-47
2023/12/14 03:03:03;;;;;;;7.18;2.20;;;7.00;99.90;;;;;;5149682;27;20043;-46
2023/12/14 03:05:29;;;;;;;8.15;2.20;;;6.90;99.90;;;;;;5149730;27;20015;-46
2023/12/14 03:07:54;;;;;;;9.48;2.20;;;7.00;99.90;;;;;;5149218;27;20160;-46
2023/12/14 03:10:20;;;;;;;3.22;1.55;;;7.00;99.90;;;;;;5150266;27;20031;-46
2023/12/14 03:12:46;;;;;;;4.05;2.15;;;7.00;99.90;;;;;;5149269;27;20272;-46
2023/12/14 03:15:11;;;;;;;5.35;1.95;;;7.00;99.90;;;;;;5149178;27;20155;-46
2023/12/14 03:17:37;;;;;;;4.88;2.03;;;7.00;99.90;;;;;;5131059;27;20042;-46
2023/12/14 03:20:05;;;;;;;10.85;2.30;;;7.00;99.90;;;;;;5149476;27;20068;-52
2023/12/14 03:22:30;;;;;;;8.50;2.10;;;7.10;99.90;;;;;;5149484;27;20165;-48
2023/12/14 03:24:56;;;;;;;6.70;2.10;;;7.10;99.90;;;;;;5149249;27;20023;-49
2023/12/14 03:27:23;;;;;;;6.25;1.95;;;7.10;99.90;;;;;;5148659;27;20072;-50
2023/12/14 03:29:49;;;;;;;5.60;1.52;;;7.10;99.90;;;;;;5147763;27;20035;-49
2023/12/14 03:32:14;;;;;;;2.92;1.60;;;7.20;99.90;;;;;;5149120;27;20027;-49
2023/12/14 03:34:40;;;;;;;6.57;1.77;;;7.20;99.90;;;;;;5148730;27;20321;-49
2023/12/14 03:37:06;;;;;;;5.60;2.00;;;7.20;99.90;;;;;;5148904;27;20053;-49
2023/12/14 03:39:32;;;;;;;8.25;2.08;;;7.30;99.90;;;;;;5149197;27;20320;-51
2023/12/14 03:41:57;;;;;;;5.07;2.05;;;7.30;99.90;;;;;;5147966;27;20026;-47
2023/12/14 03:44:24;;;;;;;6.88;2.00;;;7.30;99.90;;;;;;5149252;27;20027;-49
2023/12/14 03:46:50;;;;;;;2.92;1.33;;;7.30;99.90;;;;;;5148526;27;20189;-49
2023/12/14 03:49:15;;;;;;;7.00;1.98;;;7.40;99.90;;;;;;5147464;27;20285;-48
2023/12/14 03:51:41;;;;;;;7.32;2.08;;;7.40;99.90;;;;;;5148465;27;20103;-49
2023/12/14 03:54:07;;;;;;;5.45;1.88;;;7.40;99.90;;;;;;5148817;27;20265;-48
2023/12/14 03:56:32;;;;;;;7.35;1.95;;;7.40;99.90;;;;;;5148736;27;20027;-48
2023/12/14 03:58:58;;;;;;;10.48;1.60;;;7.50;99.90;;;;;;5148448;27;20031;-50
2023/12/14 04:01:24;;;;;;;4.47;1.25;;;7.60;99.90;;;;;;5148368;27;20019;-48
2023/12/14 04:03:49;;;;;;;8.50;1.42;;;7.60;99.90;;;;;;5148296;27;20211;-47
2023/12/14 04:06:15;;;;;;;3.83;1.23;;;7.70;99.90;;;;;;5148397;27;20063;-49
2023/12/14 04:08:41;;;;;;;6.28;1.38;;;7.70;99.90;;;;;;5147055;27;20051;-50
2023/12/14 04:11:07;;;;;;;4.20;1.17;;;7.80;99.90;;;;;;5147179;27;20106;-48
2023/12/14 04:13:33;;;;;;;5.32;1.17;;;7.80;99.90;;;;;;5148200;27;20045;-49
2023/12/14 04:15:58;;;;;;;5.85;1.33;;;7.80;99.90;;;;;;5147294;27;20023;-49
2023/12/14 04:18:24;;;;;;;7.15;1.13;;;7.80;99.90;;;;;;5148091;27;20027;-46
2023/12/14 04:20:50;;;;;;;4.88;1.02;;;7.90;99.90;;;;;;5147150;27;20065;-47
2023/12/14 04:23:15;;;;;;;6.75;1.48;;;7.90;99.90;;;;;;5147795;27;20058;-46
2023/12/14 04:25:41;;;;;;;4.07;1.05;;;7.90;99.90;;;;;;5148004;27;20097;-46
2023/12/14 04:28:07;;;;;;;3.75;1.00;;;7.90;99.90;;;;;;5148118;27;20173;-46
2023/12/14 04:30:32;;;;;;;5.28;1.38;;;7.90;99.90;;;;;;5147362;27;20031;-46
2023/12/14 04:32:58;;;;;;;4.75;1.25;;;7.90;99.90;;;;;;5147911;27;20083;-49
2023/12/14 04:35:24;;;;;;;2.45;1.00;;;7.90;99.90;;;;;;5147595;27;20058;-49
2023/12/14 04:37:49;;;;;;;3.88;0.80;;;8.00;99.90;;;;;;5147612;27;20035;-49
2023/12/14 04:40:15;;;;;;;5.45;1.15;;;8.00;99.90;;;;;;5147769;27;20051;-49
2023/12/14 04:42:41;;;;;;;5.30;1.63;;;8.00;99.90;;;;;;5148267;27;20277;-49
2023/12/14 04:45:08;;;;;;;5.70;1.00;;;8.10;99.90;;;;;;5147337;27;20023;-49
2023/12/14 04:47:35;;;;;;;5.85;1.10;;;8.10;99.90;;;;;;5147200;27;20038;-49
2023/12/14 04:50:01;;;;;;;4.07;1.00;;;8.10;99.90;;;;;;5147540;27;20046;-49
2023/12/14 04:52:26;;;;;;;3.97;1.00;;;8.20;99.90;;;;;;5146366;27;20023;-49
2023/12/14 04:54:52;;;;;;;6.82;1.38;;;8.20;99.90;;;;;;5147163;27;20237;-49
2023/12/14 04:57:18;;;;;;;7.72;1.40;;;8.20;99.90;;;;;;5147320;27;20063;-49
2023/12/14 04:59:43;;;;;;;4.78;1.17;;;8.20;99.90;;;;;;5146377;27;20030;-49
2023/12/14 05:02:09;;;;;;;6.60;1.40;;;8.30;99.90;;;;;;5147870;27;20031;-48
2023/12/14 05:04:35;;;;;;;7.13;1.63;;;8.30;99.90;;;;;;5146638;27;20015;-46
2023/12/14 05:07:00;;;;;;;10.23;1.60;;;8.30;99.90;;;;;;5146848;27;20038;-49
2023/12/14 05:09:26;;;;;;;6.80;1.65;;;8.40;99.90;;;;;;5146168;27;20100;-48
2023/12/14 05:11:52;;;;;;;12.50;1.80;;;8.40;99.90;;;;;;5146968;27;20022;-47
2023/12/14 05:14:18;;;;;;;8.90;1.73;;;8.40;99.90;;;;;;5147344;27;20054;-49
2023/12/14 05:16:44;;;;;;;11.40;1.98;;;8.60;99.90;;;;;;5147269;27;20038;-49
2023/12/14 05:19:09;;;;;;;14.35;1.90;;;8.80;99.90;;;;;;5147456;27;20072;-50
2023/12/14 05:21:35;;;;;;;12.13;2.53;;;9.00;99.90;;;;;;5145984;27;20239;-49
2023/12/14 05:24:01;;;;;;;10.93;1.90;;;9.10;99.90;;;;;;5146962;27;20026;-49
2023/12/14 05:26:27;;;;;;;10.63;1.70;;;9.10;99.90;;;;;;5145968;27;20026;-46
2023/12/14 05:28:52;;;;;;;9.38;1.77;;;9.20;99.90;;;;;;5145891;27;20030;-50
2023/12/14 05:31:18;;;;;;;11.02;1.90;;;9.20;99.90;;;;;;5147102;27;20027;-51
2023/12/14 05:33:43;;;;;;;7.03;1.63;;;9.30;99.90;;;;;;5146963;27;20048;-51
2023/12/14 05:36:10;;;;;;;9.65;1.85;;;9.30;99.90;;;;;;5146398;27;20023;-46
2023/12/14 05:38:39;;;;;;;7.82;1.70;;;9.30;99.90;;;;;;5146817;28;20076;-47
2023/12/14 05:41:05;;;;;;;10.27;1.65;;;9.30;99.90;;;;;;5146775;28;20015;-47
2023/12/14 05:43:31;;;;;;;11.10;1.77;;;9.30;99.90;;;;;;5129131;28;20080;-47
2023/12/14 05:45:56;;;;;;;12.25;2.30;;;9.40;99.90;;;;;;5146913;28;20031;-46
2023/12/14 05:48:22;;;;;;;9.05;1.83;;;9.30;99.90;;;;;;5147209;28;20058;-46
2023/12/14 05:50:48;;;;;;;9.85;1.77;;;9.40;99.90;;;;;;5145571;28;20031;-47
2023/12/14 05:53:13;;;;;;;11.95;2.20;;;9.40;99.90;;;;;;5146471;28;20180;-47
2023/12/14 05:55:40;;;;;;;8.25;1.98;;;9.40;99.90;;;;;;5145750;28;20076;-47
2023/12/14 05:58:07;;;;;;;20.02;2.25;;;9.40;99.90;;;;;;5149791;27;20098;-47
2023/12/14 06:00:34;;;;;;;11.98;2.05;;;9.50;99.90;;;;;;5150040;27;20094;-47
2023/12/14 06:03:00;;;;;;;7.75;1.70;;;9.50;99.90;;;;;;5150871;27;20068;-47
2023/12/14 06:05:26;;;;;;;13.65;1.90;;;9.50;99.90;;;;;;5150634;27;20035;-48
2023/12/14 06:07:51;;;;;;;11.85;1.90;;;9.50;99.90;;;;;;5150390;27;20054;-48
2023/12/14 06:10:17;;;;;;;10.88;2.05;;;9.50;99.90;;;;;;5149359;27;20146;-50
2023/12/14 06:12:43;;;;;;;10.63;2.17;;;9.50;99.90;;;;;;5150457;27;20038;-48
2023/12/14 06:15:09;;;;;;;10.40;2.17;;;9.50;99.90;;;;;;5150414;27;20090;-50
2023/12/14 06:17:37;;;;;;;7.82;1.90;;;9.50;99.90;;;;;;5149400;27;20277;-49
2023/12/14 06:20:04;;;;;;;12.15;2.15;;;9.60;99.90;;;;;;5150615;27;20023;-48
2023/12/14 06:22:29;;;;;;;9.57;2.13;;;9.60;99.90;;;;;;5150642;27;20080;-50
2023/12/14 06:24:55;;;;;;;10.25;2.60;;;9.60;99.90;;;;;;5149509;27;20199;-47
2023/12/14 06:27:26;;;;;;;7.00;1.83;;;9.60;99.90;;;;;;5150113;27;20038;-51
2023/12/14 06:29:52;;;;;;;16.10;2.97;;;9.60;99.90;;;;;;5150325;27;20285;-50
2023/12/14 06:32:17;;;;;;;11.85;2.08;;;9.60;99.90;;;;;;5150208;27;20043;-48
2023/12/14 06:34:43;;;;;;;10.52;2.00;;;9.60;99.90;;;;;;5148933;27;20269;-48
2023/12/14 06:37:09;;;;;;;11.13;1.95;;;9.60;99.90;;;;;;5150068;27;20207;-50
2023/12/14 06:39:35;;;;;;;8.65;2.00;;;9.60;99.90;;;;;;5150226;27;20022;-48
2023/12/14 06:42:01;;;;;;;10.07;2.35;;;9.60;99.90;;;;;;5148906;27;20023;-49
2023/12/14 06:44:27;;;;;;;12.23;2.63;;;9.60;99.90;;;;;;5149948;27;20066;-47
2023/12/14 06:46:54;;;;;;;10.02;1.95;;;9.60;99.90;;;;;;5149785;27;20094;-47
2023/12/14 06:49:20;;;;;;;13.02;2.00;;;9.60;99.90;;;;;;5149729;27;20042;-46
2023/12/14 06:51:46;;;;;;;7.60;2.03;;;9.60;99.90;;;;;;5148834;27;20038;-47
2023/12/14 06:54:11;;;;;;;8.95;1.90;;;9.60;99.90;;;;;;5149776;27;20233;-47
2023/12/14 06:56:37;;;;;;;11.73;2.40;;;9.60;99.90;;;;;;5148240;27;20047;-46
2023/12/14 06:59:03;;;;;;;11.02;2.65;;;9.60;99.90;;;;;;5148424;27;20038;-49
2023/12/14 07:01:28;;;;;;;14.57;2.15;;;9.60;99.90;;;;;;5149454;27;20019;-48
2023/12/14 07:03:54;;;;;;;11.00;2.35;;;9.60;99.90;;;;;;5149446;27;20058;-46
2023/12/14 07:06:21;;;;;;;11.13;2.30;;;9.60;99.90;;;;;;5150012;27;20088;-47
2023/12/14 07:08:47;;;;;;;9.30;2.20;;;9.60;99.90;;;;;;5147739;27;20058;-47
2023/12/14 07:11:13;;;;;;;10.75;2.58;;;9.60;99.90;;;;;;5148374;27;20211;-47
2023/12/14 07:13:39;;;;;;;11.88;2.30;;;9.60;99.90;;;;;;5149256;27;20038;-49
2023/12/14 07:16:11;;;;;;;12.18;2.20;;;9.60;99.90;;;;;;5148850;27;20166;-49
2023/12/14 07:18:38;;;;;;;9.88;3.00;;;9.70;99.90;;;;;;5149336;27;20043;-50
2023/12/14 07:21:04;;;;;;;14.73;2.92;;;9.70;99.90;;;;;;5149039;27;20035;-49
2023/12/14 07:23:29;;;;;;;9.05;2.40;;;9.60;99.90;;;;;;5148411;27;20049;-49
2023/12/14 07:25:55;;;;;;;13.52;3.05;;;9.70;99.90;;;;;;5149146;27;20053;-49
2023/12/14 07:28:21;;;;;;;6.40;1.80;;;9.70;99.90;;;;;;5148675;27;20042;-49
2023/12/14 07:30:47;;;;;;;10.43;2.25;;;9.70;99.90;;;;;;5148957;27;20102;-50
2023/12/14 07:33:13;;;;;;;13.48;2.35;;;9.70;99.90;;;;;;5149005;27;20284;-49
2023/12/14 07:35:39;;;;;;;14.48;2.50;;;9.70;99.90;;;;;;5148961;27;20166;-50
2023/12/14 07:38:05;;;;;;;7.18;2.22;;;9.70;99.90;;;;;;5149278;27;20058;-52
2023/12/14 07:40:30;;;;;;;5.20;2.05;;;9.70;99.90;;;;;;5148959;27;20199;-50
2023/12/14 07:42:56;;;;;;;7.65;2.40;;;9.70;99.90;;;;;;5147994;27;20229;-50
2023/12/14 07:45:22;;;;;;;18.80;2.60;;;9.70;99.90;;;;;;5147603;27;20269;-50
2023/12/14 07:47:47;;;;;;;10.30;2.70;;;9.70;99.90;;;;;;5148659;27;20034;-50
2023/12/14 07:50:13;;;;;;;5.63;2.25;;;9.70;99.90;;;;;;5148481;27;20055;-50
2023/12/14 07:52:40;;;;;;;7.15;1.80;;;9.70;99.90;;;;;;5148665;27;20095;-49
2023/12/14 07:55:06;;;;;;;8.77;2.10;;;9.70;99.90;;;;;;5130392;27;20011;-56
2023/12/14 07:57:32;;;;;;;9.93;2.42;;;9.70;99.90;;;;;;5148744;27;20080;-50
2023/12/14 07:59:57;;;;;;;8.77;2.50;;;9.70;99.90;;;;;;5147243;27;20034;-48
2023/12/14 08:02:23;;;;;;;10.40;2.65;;;9.70;99.90;;;;;;5147731;27;20022;-48
2023/12/14 08:04:49;;;;;;;10.32;2.60;;;9.70;99.90;;;;;;5147982;27;20037;-47
2023/12/14 08:07:15;;;;;;;6.38;2.08;;;9.60;99.90;;;;;;5147782;27;20051;-48
2023/12/14 08:09:40;;;;;;;9.13;2.78;;;9.70;99.90;;;;;;5147296;27;20031;-46
2023/12/14 08:12:06;;;;;;;7.57;2.00;;;9.70;99.90;;;;;;5148403;27;20281;-52
2023/12/14 08:14:34;;;;;;;7.88;1.80;;;9.60;99.90;;;;;;5146918;27;20026;-46
2023/12/14 08:16:59;;;;;;;6.40;1.92;;;9.70;99.90;;;;;;5147795;27;20019;-47
2023/12/14 08:19:25;;;;;;;9.52;2.00;;;9.70;99.90;;;;;;5147401;27;20031;-48
2023/12/14 08:21:51;;;;;;;7.45;1.85;;;9.70;99.90;;;;;;5147957;27;20015;-48
2023/12/14 08:24:17;;;;;;;11.52;2.42;;;9.70;99.90;;;;;;5147910;27;20023;-51
2023/12/14 08:26:42;;;;;;;7.93;2.50;;;9.80;99.90;;;;;;5147660;27;20055;-50
2023/12/14 08:29:08;;;;;;;8.43;1.92;;;9.80;99.90;;;;;;5147597;27;20023;-49
2023/12/14 08:31:34;;;;;;;12.75;5.55;;;9.90;99.90;;;;;;5147729;27;20019;-50
2023/12/14 08:34:00;;;;;;;9.50;2.47;;;9.90;99.90;;;;;;5147686;27;20031;-50
2023/12/14 08:36:26;;;;;;;10.50;2.75;;;9.90;99.90;;;;;;5129424;27;20184;-49
2023/12/14 08:38:52;;;;;;;8.38;2.63;;;9.80;99.90;;;;;;5147476;27;20038;-47
2023/12/14 08:41:17;;;;;;;13.55;3.30;;;9.80;99.90;;;;;;5146053;27;20204;-52
2023/12/14 08:43:43;;;;;;;10.38;3.33;;;9.80;99.90;;;;;;5147129;27;20025;-49
2023/12/14 08:46:09;;;;;;;13.23;3.00;;;9.70;99.90;;;;;;5146744;27;20053;-50
2023/12/14 08:48:35;;;;;;;13.25;2.75;;;9.60;99.90;;;;;;5146643;27;20037;-50
2023/12/14 08:51:01;;;;;;;11.32;3.08;;;9.50;99.90;;;;;;5146798;27;20023;-49
2023/12/14 08:53:28;;;;;;;16.27;3.67;;;9.40;99.90;;;;;;5146058;27;20274;-51
2023/12/14 08:55:54;;;;;;;16.75;4.22;;;9.30;99.90;;;;;;5147121;27;20026;-49
2023/12/14 08:58:19;;;;;;;16.38;3.70;;;9.20;99.90;;;;;;5147173;27;20022;-50
2023/12/14 09:00:45;;;;;;;19.23;3.17;;;9.20;99.90;;;;;;5145969;27;20050;-50
2023/12/14 09:03:11;;;;;;;16.80;3.55;;;9.20;99.90;;;;;;5147005;27;20031;-50
2023/12/14 09:05:37;;;;;;;19.75;4.03;;;9.20;99.90;;;;;;5146082;27;20095;-50
2023/12/14 09:08:02;;;;;;;21.58;4.28;;;9.10;99.90;;;;;;5146534;27;20063;-50
2023/12/14 09:10:28;;;;;;;16.05;5.43;;;9.10;99.90;;;;;;5146995;27;20039;-50
2023/12/14 09:12:54;;;;;;;23.15;5.85;;;9.00;99.90;;;;;;5145422;27;20031;-49
2023/12/14 09:15:20;;;;;;;15.85;4.10;;;9.00;99.90;;;;;;5145705;27;20023;-49
2023/12/14 09:17:45;;;;;;;22.10;4.72;;;8.90;99.90;;;;;;5146020;27;20088;-47
2023/12/14 09:20:11;;;;;;;15.52;3.60;;;8.90;99.90;;;;;;5147094;27;20149;-47
2023/12/14 09:22:37;;;;;;;17.95;3.78;;;8.80;99.90;;;;;;5146659;27;20030;-47
2023/12/14 09:25:03;;;;;;;17.75;3.80;;;8.90;99.90;;;;;;5146450;27;20033;-48
2023/12/14 09:27:29;;;;;;;23.85;4.20;;;9.10;99.90;;;;;;5145601;27;20307;-47
2023/12/14 09:29:55;;;;;;;26.67;4.25;;;9.60;99.90;;;;;;5146439;27;20095;-48
2023/12/14 09:32:21;;;;;;;26.02;4.13;;;9.70;99.90;;;;;;5146459;27;20039;-48
2023/12/14 09:34:47;;;;;;;23.77;3.85;;;10.20;99.90;;;;;;5147198;27;20015;-48
2023/12/14 09:37:14;;;;;;;26.45;3.90;;;10.40;99.90;;;;;;5146388;27;20027;-47
2023/12/14 09:39:40;;;;;;;23.33;5.65;;;10.60;99.90;;;;;;5146488;28;20027;-50
2023/12/14 09:42:07;;;;;;;22.30;4.85;;;10.50;99.90;;;;;;5145708;28;20107;-50
2023/12/14 09:44:33;;;;;;;16.23;4.25;;;10.40;99.90;;;;;;5145528;28;20060;-51
2023/12/14 09:47:02;;;;;;;18.13;3.92;;;10.40;99.90;;;;;;5145289;28;20035;-49
2023/12/14 09:49:31;;;;;;;20.63;3.38;;;10.30;99.90;;;;;;5146044;28;20023;-50
2023/12/14 09:51:57;;;;;;;21.55;3.88;;;10.30;99.90;;;;;;5128798;28;20027;-50
2023/12/14 09:54:23;;;;;;;26.95;4.88;;;10.20;99.90;;;;;;5146294;28;20324;-51
2023/12/14 09:56:49;;;;;;;20.77;3.90;;;10.10;99.90;;;;;;5146148;28;20086;-47
2023/12/14 09:59:15;;;;;;;29.05;4.40;;;10.10;99.90;;;;;;5146184;28;20115;-48
2023/12/14 10:01:40;;;;;;;31.88;5.18;;;10.10;99.90;;;;;;5146388;28;20030;-48
2023/12/14 10:04:09;;;;;;;33.35;4.10;;;10.20;99.90;;;;;;5146370;28;20064;-48
2023/12/14 10:06:35;;;;;;;23.60;4.68;;;10.30;99.90;;;;;;5146482;28;20018;-47
2023/12/14 10:09:01;;;;;;;20.85;3.58;;;10.40;99.90;;;;;;5146000;28;20051;-48
2023/12/14 10:11:27;;;;;;;21.33;4.25;;;10.40;99.90;;;;;;5145097;28;20023;-47
2023/12/14 10:13:52;;;;;;;25.95;4.85;;;10.50;99.90;;;;;;5145896;28;20023;-47
2023/12/14 10:16:31;;;;;;;25.45;5.90;;;10.50;99.90;;;;;;5146164;28;20107;-47
2023/12/14 10:18:58;;;;;;;21.85;5.05;;;10.70;99.90;;;;;;5145988;28;20084;-47
2023/12/14 10:21:27;;;;;;;26.80;5.03;;;10.80;99.90;;;;;;5145668;28;20031;-47
2023/12/14 10:23:55;;;;;;;20.60;5.30;;;10.80;99.90;;;;;;5146255;28;20136;-47
2023/12/14 10:26:23;;;;;;;27.00;4.78;;;10.70;99.90;;;;;;5146254;28;20040;-47
2023/12/14 10:28:51;;;;;;;26.02;4.43;;;10.60;99.90;;;;;;5145031;28;20165;-47
2023/12/14 10:31:18;;;;;;;21.80;3.88;;;10.50;99.90;;;;;;5145867;28;20027;-47
2023/12/14 10:33:44;;;;;;;20.58;4.50;;;10.40;99.90;;;;;;5144930;28;20023;-47
2023/12/14 10:36:09;;;;;;;23.23;4.32;;;10.40;99.90;;;;;;5146040;28;20162;-47
2023/12/14 10:38:36;;;;;;;17.02;3.47;;;10.40;99.90;;;;;;5110879;28;20027;-47
2023/12/14 10:41:02;;;;;;;22.40;3.88;;;10.50;99.90;;;;;;5145408;28;20094;-47
2023/12/14 10:43:28;;;;;;;23.33;4.47;;;10.50;99.90;;;;;;5146769;27;20092;-51
2023/12/14 10:45:54;;;;;;;20.02;3.22;;;10.50;99.90;;;;;;5148913;27;20181;-47
2023/12/14 10:48:20;;;;;;;28.92;5.00;;;10.50;99.90;;;;;;5148612;27;20025;-48
2023/12/14 10:50:46;;;;;;;26.83;3.40;;;10.50;99.90;;;;;;5131573;27;20098;-47
2023/12/14 10:53:11;;;;;;;27.70;5.05;;;10.50;99.90;;;;;;5148260;27;20137;-48
2023/12/14 10:55:46;;;;;;;28.15;5.90;;;10.60;99.90;;;;;;5131307;27;20038;-47
2023/12/14 10:58:12;;;;;;;26.02;5.15;;;10.70;99.90;;;;;;5114273;27;20027;-48
2023/12/14 11:00:38;;;;;;;21.95;4.47;;;10.70;99.90;;;;;;5149138;27;20092;-51
2023/12/14 11:03:04;;;;;;;21.75;4.72;;;10.60;99.90;;;;;;5149346;27;20104;-51
2023/12/14 11:05:32;;;;;;;16.95;4.00;;;10.60;99.90;;;;;;5148934;27;20235;-49
2023/12/14 11:08:12;;;;;;;23.52;4.20;;;10.50;99.90;;;;;;5147915;27;20078;-51
2023/12/14 11:10:39;;;;;;;28.85;3.90;;;10.60;99.90;;;;;;5149379;27;20050;-50
2023/12/14 11:13:14;;;;;;;22.92;4.63;;;10.50;99.90;;;;;;5148850;27;20288;-50
2023/12/14 11:15:45;;;;;;;29.33;4.47;;;10.50;99.90;;;;;;5149082;27;20090;-51
2023/12/14 11:18:11;;;;;;;22.98;4.75;;;10.50;99.90;;;;;;5148734;27;20091;-50
2023/12/14 11:20:48;;;;;;;26.05;5.35;;;10.50;99.90;;;;;;5149062;27;20072;-49
2023/12/14 11:23:26;;;;;;;25.15;4.55;;;10.60;99.90;;;;;;5149019;27;20016;-50
2023/12/14 11:25:53;;;;;;;25.50;5.65;;;10.60;99.90;;;;;;5148356;27;20023;-49
2023/12/14 11:28:19;;;;;;;32.25;6.57;;;10.60;99.90;;;;;;5148418;27;20038;-49
2023/12/14 11:30:45;;;;;;;36.90;11.85;;;10.60;99.90;;;;;;5130173;27;20038;-49
2023/12/14 11:33:11;;;;;;;27.95;5.50;;;10.60;99.90;;;;;;5148219;27;20090;-48
2023/12/14 11:35:37;;;;;;;40.17;13.23;;;10.60;99.90;;;;;;5147382;27;20039;-49
2023/12/14 11:38:10;;;;;;;41.55;8.43;;;10.70;99.90;;;;;;5148230;27;20264;-49
2023/12/14 11:40:36;;;;;;;28.13;5.07;;;10.80;99.90;;;;;;5148422;27;20082;-49
2023/12/14 11:43:09;;;;;;;26.52;5.50;;;10.80;99.90;;;;;;5147984;27;20031;-49
2023/12/14 11:45:38;;;;;;;31.23;5.93;;;10.80;99.90;;;;;;5147600;27;20046;-49
2023/12/14 11:48:10;;;;;;;43.40;11.18;;;10.80;99.90;;;;;;5148323;27;20023;-49
2023/12/14 11:50:36;;;;;;;48.53;12.02;;;10.80;99.90;;;;;;5148482;27;20090;-48
2023/12/14 11:53:03;;;;;;;77.72;27.88;;;10.80;99.90;;;;;;5148275;27;20023;-49
2023/12/14 11:55:30;;;;;;;27.83;7.68;;;10.80;99.90;;;;;;5147101;27;20072;-48
2023/12/14 11:57:55;;;;;;;19.83;3.53;;;10.90;99.90;;;;;;5146588;27;20072;-47
2023/12/14 12:00:25;;;;;;;27.30;5.32;;;10.90;99.90;;;;;;5147887;27;20027;-50
2023/12/14 12:02:51;;;;;;;24.75;4.15;;;11.00;99.90;;;;;;5147843;27;20308;-49
2023/12/14 12:05:19;;;;;;;31.83;6.25;;;11.10;99.90;;;;;;5148133;27;20031;-49
2023/12/14 12:07:48;;;;;;;24.98;4.93;;;11.00;99.90;;;;;;5147436;27;20198;-49
2023/12/14 12:10:14;;;;;;;34.85;6.22;;;11.10;99.90;;;;;;5146257;27;20043;-49
2023/12/14 12:12:39;;;;;;;26.58;4.30;;;11.00;99.90;;;;;;5147307;27;20050;-50
2023/12/14 12:15:05;;;;;;;33.08;7.35;;;11.00;99.90;;;;;;5146531;27;20106;-47
2023/12/14 12:17:37;;;;;;;25.77;3.90;;;11.00;99.90;;;;;;5147422;27;20272;-47
2023/12/14 12:20:04;;;;;;;28.05;5.18;;;10.90;99.90;;;;;;5147747;27;20040;-52
2023/12/14 12:22:30;;;;;;;25.10;4.68;;;10.90;99.90;;;;;;5147769;27;20027;-47
2023/12/14 12:24:56;;;;;;;24.73;4.78;;;10.90;99.90;;;;;;5147451;27;20223;-49
2023/12/14 12:27:22;;;;;;;29.80;5.55;;;10.90;99.90;;;;;;5146964;27;20034;-48
2023/12/14 12:29:50;;;;;;;37.60;6.40;;;10.90;99.90;;;;;;5146388;27;20237;-50
2023/12/14 12:32:15;;;;;;;24.75;6.75;;;10.90;99.90;;;;;;5147381;27;20326;-54
2023/12/14 12:34:41;;;;;;;28.92;6.30;;;11.00;99.90;;;;;;5147187;27;20023;-50
2023/12/14 12:37:07;;;;;;;27.70;5.90;;;11.00;99.90;;;;;;5147012;27;20078;-49
2023/12/14 12:39:34;;;;;;;54.75;18.90;;;11.00;99.90;;;;;;5146910;27;20031;-47
2023/12/14 12:41:59;;;;;;;119.97;43.83;;;11.00;99.90;;;;;;5147169;27;20035;-50